Time;durP1;ratioP1;P1;durP2;ratioP2;P2;SDS_P1;SDS_P2;PMS_P1;PMS_P2;Temp;Humidity;BMP_temperature;BMP_pressure;BME280_temperature;BME280_humidity;BME280_pressure;Samples;Min_cycle;Max_cycle;Signal;HPM_P1;HPM_P2
2023/12/22 00:00:47;;;;;;;10.43;3.07;;;;;;;-141.84;74.79;18509.28;5070368;28;20266;-60
2023/12/22 00:03:16;;;;;;;9.07;2.93;;;;;;;-141.84;75.00;18560.06;5061846;28;20262;-59
2023/12/22 00:05:46;;;;;;;8.73;2.20;;;;;;;-141.84;74.85;18537.72;5069070;28;20568;-60
2023/12/22 00:08:14;;;;;;;11.63;3.23;;;;;;;-141.84;73.53;18523.50;5069795;28;20718;-60
2023/12/22 00:10:43;;;;;;;9.13;2.90;;;;;;;-141.84;74.07;18519.44;5070119;28;20196;-60
2023/12/22 00:13:11;;;;;;;10.47;2.60;;;;;;;-141.84;75.33;18553.97;5070635;28;20281;-60
2023/12/22 00:15:40;;;;;;;17.80;4.43;;;;;;;-141.84;76.56;18598.69;5069534;28;20224;-60
2023/12/22 00:18:08;;;;;;;13.90;3.43;;;;;;;-141.84;76.69;18635.25;5069699;28;20251;-60
2023/12/22 00:20:37;;;;;;;10.57;3.67;;;;;;;-141.84;77.09;18627.13;5066631;28;20235;-60
2023/12/22 00:23:07;;;;;;;12.93;3.63;;;;;;;-141.84;77.91;18655.56;5061126;28;20274;-60
2023/12/22 00:25:35;;;;;;;12.43;3.27;;;;;;;-141.84;77.92;18665.72;5069030;28;20235;-59
2023/12/22 00:28:04;;;;;;;13.80;3.50;;;;;;;-141.84;78.45;18714.50;5070557;28;20193;-61
2023/12/22 00:30:33;;;;;;;14.57;3.47;;;;;;;-141.84;78.64;18708.41;5069434;28;20258;-61
2023/12/22 00:33:02;;;;;;;18.60;3.30;;;;;;;-141.84;79.50;18797.78;5063654;28;20223;-60
2023/12/22 00:35:30;;;;;;;15.43;3.47;;;;;;;-141.84;77.62;18694.16;5068070;28;20224;-60
2023/12/22 00:37:59;;;;;;;12.77;3.23;;;;;;;-141.84;78.50;18726.69;5070347;28;20422;-59
2023/12/22 00:40:29;;;;;;;9.43;2.40;;;;;;;-141.84;76.61;18639.31;5070757;28;20208;-60
2023/12/22 00:42:57;;;;;;;9.03;3.03;;;;;;;-141.84;77.35;18671.81;5063433;28;20249;-60
2023/12/22 00:45:26;;;;;;;12.67;2.90;;;;;;;-141.84;77.25;18631.19;5068624;28;20698;-61
2023/12/22 00:47:54;;;;;;;11.47;3.30;;;;;;;-141.84;74.83;18576.31;5065606;28;20640;-60
2023/12/22 00:50:23;;;;;;;11.50;3.00;;;;;;;-141.84;74.97;18582.44;5069681;28;20716;-60
2023/12/22 00:52:52;;;;;;;14.70;2.97;;;;;;;-141.84;75.21;18523.50;5069854;28;20231;-60
2023/12/22 00:55:20;;;;;;;14.30;3.40;;;;;;;-141.84;75.16;18576.31;5070517;28;20200;-60
2023/12/22 00:57:50;;;;;;;12.77;3.43;;;;;;;-141.84;75.33;18558.03;5068537;28;20584;-60
2023/12/22 01:00:19;;;;;;;11.37;3.20;;;;;;;-141.84;74.38;18553.97;5067081;28;20332;-60
2023/12/22 01:02:48;;;;;;;10.93;2.80;;;;;;;-141.84;75.01;18562.09;5067538;28;20780;-61
2023/12/22 01:05:16;;;;;;;13.70;3.63;;;;;;;-141.84;73.83;18558.03;5069721;28;20965;-59
2023/12/22 01:07:45;;;;;;;10.40;3.23;;;;;;;-141.84;72.25;18515.38;5069082;28;20192;-60
2023/12/22 01:10:14;;;;;;;10.10;2.50;;;;;;;-141.84;72.46;18535.69;5069873;28;20192;-60
2023/12/22 01:12:42;;;;;;;13.53;3.10;;;;;;;-141.84;73.38;18556.00;5069243;28;20228;-60
2023/12/22 01:15:12;;;;;;;10.90;2.57;;;;;;;-141.84;76.75;18614.94;5069841;28;20235;-60
2023/12/22 01:17:41;;;;;;;15.00;3.20;;;;;;;-141.84;78.06;18708.41;5068404;28;20310;-60
2023/12/22 01:20:10;;;;;;;10.83;3.00;;;;;;;-141.84;78.76;18761.22;5069224;28;20747;-60
2023/12/22 01:22:39;;;;;;;7.43;2.53;;;;;;;-141.84;80.03;18838.44;5069261;28;20208;-61
2023/12/22 01:25:08;;;;;;;12.07;3.27;;;;;;;-141.84;79.33;18791.69;5069605;28;20205;-60
2023/12/22 01:27:36;;;;;;;12.73;3.20;;;;;;;-141.84;77.75;18651.50;5068304;28;20223;-60
2023/12/22 01:30:06;;;;;;;17.20;3.13;;;;;;;-141.84;78.45;18700.25;5069149;28;20236;-61
2023/12/22 01:32:36;;;;;;;11.83;3.67;;;;;;;-141.84;77.46;18655.56;5068689;28;20301;-60
2023/12/22 01:35:09;;;;;;;13.30;3.07;;;;;;;-141.84;76.95;18659.63;5072465;28;20236;-61
2023/12/22 01:37:38;;;;;;;16.97;3.43;;;;;;;-141.84;77.07;18679.94;5072783;28;20193;-60
2023/12/22 01:40:08;;;;;;;15.17;3.30;;;;;;;-141.84;75.84;18574.28;5073481;28;20193;-60
2023/12/22 01:42:36;;;;;;;11.80;3.50;;;;;;;-141.84;74.44;18533.66;5072310;28;20302;-60
2023/12/22 01:45:06;;;;;;;14.70;2.93;;;;;;;-141.84;74.98;18562.09;5072286;28;20285;-60
2023/12/22 01:47:37;;;;;;;14.30;3.37;;;;;;;-141.84;75.58;18614.94;5072073;28;20257;-61
2023/12/22 01:50:06;;;;;;;15.17;4.40;;;;;;;-141.84;73.96;18578.38;5072887;28;20595;-61
2023/12/22 01:52:35;;;;;;;13.13;3.93;;;;;;;-141.84;72.45;18537.72;5060933;28;20648;-60
2023/12/22 01:55:05;;;;;;;13.10;3.47;;;;;;;-141.84;72.38;18519.44;5067113;28;20243;-59
2023/12/22 01:57:35;;;;;;;8.60;3.10;;;;;;;-141.84;73.06;18513.34;5072265;28;20261;-61
2023/12/22 02:00:05;;;;;;;12.37;3.40;;;;;;;-141.84;74.71;18556.00;5072477;28;20259;-61
2023/12/22 02:02:35;;;;;;;12.50;3.57;;;;;;;-141.84;73.48;18543.81;5072001;28;20251;-61
2023/12/22 02:05:05;;;;;;;16.27;3.50;;;;;;;-141.84;72.94;18541.78;5072159;28;20224;-61
2023/12/22 02:07:33;;;;;;;11.83;3.20;;;;;;;-141.84;71.69;18511.31;5072200;28;20591;-58
2023/12/22 02:10:03;;;;;;;15.90;3.90;;;;;;;-141.84;71.64;18529.59;5072842;28;20662;-59
2023/12/22 02:12:32;;;;;;;15.17;3.53;;;;;;;-141.84;71.60;18529.59;5071597;28;20255;-59
2023/12/22 02:15:00;;;;;;;12.63;3.30;;;;;;;-141.84;71.33;18527.56;5071854;28;20252;-59
2023/12/22 02:17:40;;;;;;;14.87;3.50;;;;;;;-141.84;73.05;18553.97;5055913;28;20337;-59
2023/12/22 02:20:10;;;;;;;11.53;3.03;;;;;;;-141.84;73.99;18551.94;5071548;28;20235;-60
2023/12/22 02:22:40;;;;;;;13.97;3.53;;;;;;;-141.84;73.08;18517.41;5071852;28;20201;-60
2023/12/22 02:25:09;;;;;;;12.87;3.67;;;;;;;-141.84;73.61;18560.06;5071085;28;20296;-61
2023/12/22 02:27:45;;;;;;;13.07;3.63;;;;;;;-141.84;74.18;18539.75;5071228;28;20858;-60
2023/12/22 02:30:21;;;;;;;11.87;3.10;;;;;;;-141.84;75.14;18558.03;5070947;28;20228;-61
2023/12/22 02:32:52;;;;;;;13.57;2.93;;;;;;;-141.84;74.65;18531.63;5064668;28;20297;-60
2023/12/22 02:35:23;;;;;;;13.33;2.83;;;;;;;-141.84;74.90;18547.88;5071659;28;20329;-60
2023/12/22 02:37:55;;;;;;;12.90;3.00;;;;;;;-141.84;75.38;18586.50;5067164;28;20733;-60
2023/12/22 02:40:25;;;;;;;8.40;3.20;;;;;;;-141.84;76.63;18582.44;5067519;28;20419;-60
2023/12/22 02:42:54;;;;;;;15.13;3.17;;;;;;;-141.84;77.28;18614.94;5064171;28;20690;-61
2023/12/22 02:45:23;;;;;;;14.57;3.20;;;;;;;-141.84;77.98;18655.56;5071263;28;20220;-60
2023/12/22 02:47:51;;;;;;;12.83;3.03;;;;;;;-141.84;76.98;18606.81;5071093;28;20303;-60
2023/12/22 02:50:20;;;;;;;11.80;3.50;;;;;;;-141.84;78.38;18667.75;5071449;28;20235;-61
2023/12/22 02:52:49;;;;;;;10.73;3.20;;;;;;;-141.84;79.62;18793.72;5070422;28;20308;-60
2023/12/22 02:55:19;;;;;;;10.50;2.80;;;;;;;-141.84;79.38;18761.22;5071655;28;20228;-60
2023/12/22 02:57:48;;;;;;;16.93;3.97;;;;;;;-141.84;78.64;18700.25;5063034;28;20342;-60
2023/12/22 03:00:17;;;;;;;11.13;2.80;;;;;;;-141.84;77.07;18669.78;5071661;28;21058;-60
2023/12/22 03:02:45;;;;;;;14.23;2.70;;;;;;;-141.84;76.86;18608.84;5070142;28;20221;-62
2023/12/22 03:05:14;;;;;;;11.90;2.77;;;;;;;-141.84;77.09;18643.38;5071562;28;20281;-60
2023/12/22 03:07:43;;;;;;;15.37;2.77;;;;;;;-141.84;76.49;18635.25;5071694;28;20196;-60
2023/12/22 03:10:11;;;;;;;16.97;3.00;;;;;;;-141.84;76.90;18631.19;5071649;28;20208;-60
2023/12/22 03:12:41;;;;;;;11.33;2.70;;;;;;;-141.84;77.71;18667.75;5071732;28;20250;-61
2023/12/22 03:15:11;;;;;;;10.13;2.90;;;;;;;-141.84;78.08;18706.38;5071162;28;20227;-59
2023/12/22 03:17:39;;;;;;;9.67;2.60;;;;;;;-141.84;75.89;18612.91;5070243;28;20248;-59
2023/12/22 03:20:08;;;;;;;7.83;2.83;;;;;;;-141.84;74.63;18562.09;5071176;28;20242;-60
2023/12/22 03:23:24;;;;;;;13.87;3.07;;;;;;;-141.84;74.95;18505.22;5071142;28;20212;-61
2023/12/22 03:29:35;;;;;;;13.87;2.80;;;;;;;-141.84;76.17;18602.75;5063938;28;20222;-60
2023/12/22 03:32:04;;;;;;;10.07;2.30;;;;;;;-141.84;75.94;18566.16;5069358;28;20251;-60
2023/12/22 03:34:33;;;;;;;10.47;2.77;;;;;;;-141.84;77.55;18659.63;5068518;28;20232;-59
2023/12/22 03:37:01;;;;;;;8.23;2.50;;;;;;;-141.84;78.26;18716.53;5071408;28;20198;-59
2023/12/22 03:39:30;;;;;;;10.63;2.30;;;;;;;-141.84;78.09;18690.09;5070557;28;20247;-60
2023/12/22 03:41:59;;;;;;;11.90;2.73;;;;;;;-141.84;78.03;18673.84;5070652;28;20591;-60
2023/12/22 03:44:27;;;;;;;10.40;2.60;;;;;;;-141.84;77.72;18649.47;5070614;28;20234;-60
2023/12/22 03:46:57;;;;;;;13.20;2.40;;;;;;;-141.84;77.08;18612.91;5070228;28;20223;-60
2023/12/22 03:49:26;;;;;;;11.97;2.97;;;;;;;-141.84;77.59;18665.72;5063152;28;20193;-61
2023/12/22 03:51:54;;;;;;;6.70;1.80;;;;;;;-141.84;77.46;18655.56;5071053;28;20684;-60
2023/12/22 03:54:23;;;;;;;8.30;1.90;;;;;;;-141.84;77.50;18663.69;5070299;28;20278;-60
2023/12/22 03:56:51;;;;;;;7.87;2.00;;;;;;;-141.84;77.11;18625.09;5069735;28;20608;-60
2023/12/22 03:59:20;;;;;;;6.53;1.73;;;;;;;-141.84;75.99;18582.44;5070164;28;20223;-60
2023/12/22 04:01:53;;;;;;;7.63;2.20;;;;;;;-141.84;75.89;18572.25;5069978;28;20245;-60
2023/12/22 04:04:23;;;;;;;6.40;1.83;;;;;;;-141.84;75.41;18574.28;5060302;28;20197;-61
2023/12/22 04:06:52;;;;;;;5.20;1.93;;;;;;;-141.84;76.91;18649.47;5067964;28;20217;-61
2023/12/22 04:09:20;;;;;;;5.17;1.70;;;;;;;-141.84;77.02;18641.34;5070182;28;20232;-60
2023/12/22 04:11:49;;;;;;;7.33;1.50;;;;;;;-141.84;77.98;18720.59;5070545;28;20300;-60
2023/12/22 04:14:18;;;;;;;7.53;1.93;;;;;;;-141.84;78.70;18720.59;5070069;28;20289;-61
2023/12/22 04:16:47;;;;;;;7.00;1.50;;;;;;;-141.84;78.90;18736.84;5068956;28;20223;-60
2023/12/22 04:19:15;;;;;;;7.90;1.70;;;;;;;-141.84;81.04;18972.53;5069522;28;20200;-60
2023/12/22 04:21:46;;;;;;;4.10;1.70;;;;;;;-141.84;82.31;19155.41;5069699;28;20270;-61
2023/12/22 04:24:14;;;;;;;4.43;1.10;;;;;;;-141.84;83.75;19576.06;5069467;28;20632;-60
2023/12/22 04:26:43;;;;;;;2.30;0.90;;;;;;;-141.84;84.38;19858.56;5069829;28;20298;-60
2023/12/22 04:29:11;;;;;;;3.50;0.90;;;;;;;-141.84;86.24;21147.28;5069389;28;20236;-60
2023/12/22 04:31:40;;;;;;;2.90;1.30;;;;;;;-141.84;86.41;21529.53;5063386;28;20193;-60
2023/12/22 04:34:08;;;;;;;5.17;1.00;;;;;;;-141.84;86.48;21318.06;5068654;28;20236;-60
2023/12/22 04:36:37;;;;;;;2.03;1.00;;;;;;;-141.84;88.63;25585.94;5069311;28;20289;-60
2023/12/22 04:39:07;;;;;;;3.63;1.00;;;;;;;-141.84;88.42;24708.78;5069410;28;20223;-60
2023/12/22 04:41:36;;;;;;;4.03;1.53;;;;;;;-141.84;88.41;25575.75;5069389;28;20239;-60
2023/12/22 04:44:04;;;;;;;4.50;1.17;;;;;;;-141.84;85.04;20273.19;5066031;28;20224;-60
2023/12/22 04:46:33;;;;;;;4.60;1.17;;;;;;;-141.84;85.02;20086.19;5069144;28;20706;-59
2023/12/22 04:49:01;;;;;;;4.27;1.20;;;;;;;-141.84;84.18;19681.75;5069778;28;20732;-60
2023/12/22 04:51:30;;;;;;;1.90;0.93;;;;;;;-141.84;84.18;19712.22;5069562;28;20223;-60
2023/12/22 04:53:59;;;;;;;4.80;1.10;;;;;;;-141.84;84.36;19598.41;5069425;28;20226;-60
2023/12/22 04:56:29;;;;;;;4.33;1.10;;;;;;;-141.84;86.38;21094.44;5068722;28;20792;-60
2023/12/22 04:58:58;;;;;;;3.40;1.10;;;;;;;-141.84;84.97;20061.78;5069534;28;20308;-60
2023/12/22 05:01:26;;;;;;;4.00;1.20;;;;;;;-141.84;84.05;19728.47;5069998;28;20200;-61
2023/12/22 05:03:55;;;;;;;3.80;1.10;;;;;;;-141.84;84.59;19891.06;5069444;28;20243;-60
2023/12/22 05:06:23;;;;;;;6.57;1.63;;;;;;;-141.84;84.06;19582.16;5069301;28;20662;-61
2023/12/22 05:08:52;;;;;;;4.10;1.37;;;;;;;-141.84;84.23;19834.16;5072640;28;20681;-60
2023/12/22 05:11:20;;;;;;;3.93;1.60;;;;;;;-141.84;83.49;19407.38;5073322;28;20301;-61
2023/12/22 05:13:50;;;;;;;4.43;1.30;;;;;;;-141.84;82.83;19271.25;5073388;28;20235;-60
2023/12/22 05:16:19;;;;;;;5.43;1.50;;;;;;;-141.84;83.57;19429.75;5073399;28;20219;-61
2023/12/22 05:18:48;;;;;;;7.20;1.77;;;;;;;-141.84;84.49;19815.88;5073258;28;20223;-61
2023/12/22 05:21:16;;;;;;;5.90;1.63;;;;;;;-141.84;84.35;19569.97;5073126;28;20227;-61
2023/12/22 05:23:45;;;;;;;5.70;1.70;;;;;;;-141.84;84.88;19917.50;5072951;28;20223;-60
2023/12/22 05:26:18;;;;;;;4.00;1.20;;;;;;;-141.84;85.50;20342.28;5066571;28;20281;-60
2023/12/22 05:28:49;;;;;;;5.80;1.83;;;;;;;-141.84;85.50;20287.41;5069405;28;20236;-60
2023/12/22 05:31:19;;;;;;;4.07;1.33;;;;;;;-141.84;85.16;20258.94;5072633;28;20214;-60
2023/12/22 05:33:48;;;;;;;7.20;1.70;;;;;;;-141.84;83.84;19411.44;5072272;28;21030;-60
2023/12/22 05:36:16;;;;;;;8.50;2.13;;;;;;;-141.84;84.24;19698.00;5072385;28;20310;-59
2023/12/22 05:38:44;;;;;;;8.00;1.87;;;;;;;-141.84;81.87;18968.47;5062870;28;20242;-60
2023/12/22 05:41:14;;;;;;;6.37;1.70;;;;;;;-141.84;79.92;18765.28;5071996;28;20663;-60
2023/12/22 05:43:42;;;;;;;10.03;1.70;;;;;;;-141.84;80.00;18716.53;5072980;28;20601;-60
2023/12/22 05:46:12;;;;;;;6.03;1.83;;;;;;;-141.84;80.55;18781.53;5073476;28;20762;-63
2023/12/22 05:48:41;;;;;;;4.90;1.93;;;;;;;-141.84;80.59;18814.03;5073118;28;20221;-61
2023/12/22 05:51:13;;;;;;;6.73;1.97;;;;;;;-141.84;80.68;18793.72;5072698;28;20278;-60
2023/12/22 05:53:42;;;;;;;6.73;1.80;;;;;;;-141.84;77.36;18608.84;5072817;28;20222;-61
2023/12/22 05:56:19;;;;;;;6.17;2.17;;;;;;;-141.84;76.45;18539.75;5072181;28;20239;-60
2023/12/22 05:58:48;;;;;;;5.20;1.73;;;;;;;-141.84;76.10;18594.63;5065354;28;20279;-60
2023/12/22 06:01:19;;;;;;;6.63;1.70;;;;;;;-141.84;75.59;18543.81;5073461;28;20288;-60
2023/12/22 06:03:48;;;;;;;6.30;2.00;;;;;;;-141.84;74.25;18484.91;5072463;28;20255;-60
2023/12/22 06:06:16;;;;;;;9.30;1.97;;;;;;;-141.84;74.65;18521.47;5072575;28;20224;-60
2023/12/22 06:08:45;;;;;;;6.07;1.50;;;;;;;-141.84;73.15;18499.13;5072822;28;20227;-60
2023/12/22 06:11:14;;;;;;;7.10;2.43;;;;;;;-141.84;72.36;18501.16;5071366;28;20228;-60
2023/12/22 06:13:43;;;;;;;5.83;1.70;;;;;;;-141.84;71.44;18474.75;5072708;28;20201;-60
2023/12/22 06:16:15;;;;;;;7.73;1.80;;;;;;;-141.84;72.63;18503.19;5072522;28;20230;-61
2023/12/22 06:18:45;;;;;;;6.57;2.10;;;;;;;-141.84;71.52;18480.84;5064926;28;20304;-61
2023/12/22 06:21:15;;;;;;;7.77;2.07;;;;;;;-141.84;71.76;18537.72;5067971;28;20224;-61
2023/12/22 06:23:44;;;;;;;4.73;1.50;;;;;;;-141.84;72.85;18499.13;5071482;28;20240;-60
2023/12/22 06:26:13;;;;;;;6.53;1.60;;;;;;;-141.84;73.44;18493.03;5071709;28;20232;-61
2023/12/22 06:28:41;;;;;;;6.93;1.70;;;;;;;-141.84;76.11;18578.38;5072395;28;20230;-60
2023/12/22 06:31:18;;;;;;;5.00;1.30;;;;;;;-141.84;79.17;18761.22;5072898;28;20290;-60
2023/12/22 06:33:49;;;;;;;8.77;1.60;;;;;;;-141.84;82.22;19078.19;5072285;28;20738;-60
2023/12/22 06:36:21;;;;;;;5.23;1.73;;;;;;;-141.84;84.83;19917.50;5070306;28;20228;-60
2023/12/22 06:38:49;;;;;;;4.07;1.40;;;;;;;-141.84;87.19;21860.97;5072057;28;20313;-60
2023/12/22 06:41:23;;;;;;;7.07;2.37;;;;;;;-141.84;88.99;25706.03;5071087;28;20471;-60
2023/12/22 06:43:56;;;;;;;7.13;1.73;;;;;;;-141.84;89.62;27972.13;5071560;28;20863;-61
2023/12/22 06:46:26;;;;;;;4.07;1.80;;;;;;;-141.84;89.67;28762.41;5072809;28;20203;-59
2023/12/22 06:48:57;;;;;;;7.30;2.00;;;;;;;-141.84;89.81;30881.50;5072125;28;20277;-60
2023/12/22 06:51:27;;;;;;;7.30;1.50;;;;;;;-141.84;90.32;32732.53;5072291;28;20586;-61
2023/12/22 06:53:57;;;;;;;6.13;1.57;;;;;;;-141.84;92.40;45489.41;5071214;28;20220;-60
2023/12/22 06:56:27;;;;;;;7.20;1.90;;;;;;;-141.84;92.65;46798.88;5065110;28;20232;-60
2023/12/22 06:58:57;;;;;;;5.67;1.90;;;;;;;-141.84;94.31;54927.34;5071950;28;20322;-60
2023/12/22 07:01:29;;;;;;;6.33;1.43;;;;;;;-141.84;95.35;59391.97;5069445;28;20196;-59
2023/12/22 07:04:01;;;;;;;6.27;1.80;;;;;;;-141.84;95.44;62546.50;5068499;28;20824;-60
2023/12/22 07:06:30;;;;;;;8.43;2.10;;;;;;;-141.84;93.80;52828.09;5069924;28;20226;-60
2023/12/22 07:09:32;;;;;;;8.17;1.70;;;;;;;-141.84;94.01;55189.84;5070151;28;20229;-60
2023/12/22 07:12:03;;;;;;;7.73;1.73;;;;;;;-141.84;95.96;63072.50;5066117;28;20253;-60
2023/12/22 07:14:32;;;;;;;7.13;1.93;;;;;;;-141.84;95.74;62809.50;5065031;28;20310;-59
2023/12/22 07:17:03;;;;;;;5.77;2.13;;;;;;;-141.84;95.73;63861.66;5071058;28;20231;-59
2023/12/22 07:19:33;;;;;;;6.00;1.70;;;;;;;-141.84;97.39;70970.84;5068962;28;20200;-58
2023/12/22 07:22:02;;;;;;;9.33;1.67;;;;;;;-141.84;98.34;73343.38;5068729;28;20223;-59
2023/12/22 07:24:31;;;;;;;8.77;2.00;;;;;;;-141.84;98.59;74134.56;5070650;28;20269;-60
2023/12/22 07:26:59;;;;;;;6.87;1.70;;;;;;;-141.84;99.08;77300.78;5071002;28;20252;-60
2023/12/22 07:29:28;;;;;;;10.60;2.57;;;;;;;-141.84;100.00;81262.06;5071098;28;20227;-60
2023/12/22 07:31:56;;;;;;;7.87;2.30;;;;;;;-141.84;100.00;81790.53;5070694;28;20239;-60
2023/12/22 07:34:25;;;;;;;8.90;2.00;;;;;;;-141.84;99.64;79412.97;5062246;28;20233;-60
2023/12/22 07:36:57;;;;;;;7.13;2.17;;;;;;;-141.84;98.84;78620.75;5070989;28;20254;-60
2023/12/22 07:39:35;;;;;;;2.87;1.40;;;;;;;-141.84;97.83;73343.38;5059669;28;20708;-60
2023/12/22 07:42:06;;;;;;;6.10;1.40;;;;;;;-141.84;98.23;74134.56;5067669;28;20224;-60
2023/12/22 07:44:35;;;;;;;6.63;1.90;;;;;;;-141.84;98.66;76772.88;5063425;28;20229;-60
2023/12/22 07:47:04;;;;;;;5.00;1.70;;;;;;;-141.84;97.58;72288.75;5069767;28;20316;-61
2023/12/22 07:49:33;;;;;;;5.73;1.37;;;;;;;-141.84;97.53;72288.75;5069927;28;20239;-61
2023/12/22 07:52:03;;;;;;;5.93;1.47;;;;;;;-141.84;98.48;75981.22;5069964;28;20208;-60
2023/12/22 07:54:32;;;;;;;8.07;1.70;;;;;;;-141.84;98.64;76508.97;5069621;28;20225;-60
2023/12/22 07:57:00;;;;;;;7.93;1.93;;;;;;;-141.84;95.58;66493.19;5069188;28;20314;-61
2023/12/22 07:59:29;;;;;;;4.87;1.87;;;;;;;-141.84;93.49;55977.41;5070138;28;20239;-61
2023/12/22 08:02:00;;;;;;;6.90;1.57;;;;;;;-141.84;93.98;54927.34;5070840;28;20235;-60
2023/12/22 08:04:29;;;;;;;6.50;2.20;;;;;;;-141.84;92.72;50467.75;5067419;28;20307;-58
2023/12/22 08:06:57;;;;;;;5.47;2.17;;;;;;;-141.84;90.59;37474.25;5070622;28;20200;-61
2023/12/22 08:09:27;;;;;;;6.77;1.77;;;;;;;-141.84;86.24;22627.63;5069402;28;20314;-61
2023/12/22 08:11:56;;;;;;;5.37;2.00;;;;;;;-141.84;84.42;20275.22;5070494;28;20819;-60
2023/12/22 08:14:25;;;;;;;6.17;1.50;;;;;;;-141.84;80.74;18818.09;5070464;28;20305;-61
2023/12/22 08:16:54;;;;;;;4.97;1.63;;;;;;;-141.84;82.08;18996.91;5068142;28;20306;-61
2023/12/22 08:19:22;;;;;;;3.80;1.27;;;;;;;-141.84;82.62;19118.84;5070708;28;20290;-61
2023/12/22 08:21:54;;;;;;;2.03;1.00;;;;;;;-141.84;86.50;20972.47;5070073;28;20243;-61
2023/12/22 08:24:23;;;;;;;4.07;1.50;;;;;;;-141.84;84.61;19921.56;5068889;28;20228;-61
2023/12/22 08:26:53;;;;;;;5.40;1.40;;;;;;;-141.84;82.52;19169.63;5070119;28;20216;-61
2023/12/22 08:29:22;;;;;;;2.10;0.70;;;;;;;-141.84;80.00;18761.22;5068749;28;20246;-60
2023/12/22 08:31:51;;;;;;;4.50;1.30;;;;;;;-141.84;78.14;18592.59;5067194;28;20298;-60
2023/12/22 08:34:19;;;;;;;2.40;0.97;;;;;;;-141.84;76.99;18545.84;5062079;28;20322;-60
2023/12/22 08:36:48;;;;;;;3.00;1.40;;;;;;;-141.84;74.84;18517.41;5069902;28;20718;-60
2023/12/22 08:39:16;;;;;;;1.53;0.80;;;;;;;-141.84;72.10;18454.44;5069069;28;20234;-61
2023/12/22 08:41:45;;;;;;;3.13;1.10;;;;;;;-141.84;73.53;18452.41;5069865;28;20216;-61
2023/12/22 08:44:15;;;;;;;7.30;1.17;;;;;;;-141.84;71.60;18444.28;5069902;28;20235;-60
2023/12/22 08:46:44;;;;;;;4.20;1.10;;;;;;;-141.84;72.32;18440.22;5070118;28;20283;-60
2023/12/22 08:49:13;;;;;;;3.83;1.00;;;;;;;-141.84;68.93;18436.16;5069372;28;20261;-63
2023/12/22 08:51:42;;;;;;;4.40;1.10;;;;;;;-141.84;67.76;18430.06;5070177;28;20314;-62
2023/12/22 08:54:11;;;;;;;3.37;1.07;;;;;;;-141.84;67.77;18432.09;5068432;28;20235;-61
2023/12/22 08:56:39;;;;;;;4.13;1.10;;;;;;;-141.84;68.94;18468.66;5063741;28;20242;-61
2023/12/22 08:59:08;;;;;;;7.70;1.37;;;;;;;-141.84;67.73;18442.25;5069511;28;20316;-61
2023/12/22 09:01:40;;;;;;;4.27;1.00;;;;;;;-141.84;67.44;18419.88;5069975;28;20769;-62
2023/12/22 09:04:12;;;;;;;4.90;1.20;;;;;;;-141.84;68.12;18476.78;5063133;28;20201;-59
2023/12/22 09:06:40;;;;;;;7.50;1.10;;;;;;;-141.84;66.96;18468.66;5060997;28;20290;-60
2023/12/22 09:09:09;;;;;;;4.13;1.10;;;;;;;-141.84;65.98;18450.38;5067518;28;20235;-63
2023/12/22 09:11:38;;;;;;;3.70;0.90;;;;;;;-141.84;66.30;18484.91;5068607;28;20233;-63
2023/12/22 09:14:09;;;;;;;4.00;0.80;;;;;;;-141.84;69.72;18491.00;5067171;28;20692;-60
2023/12/22 09:16:40;;;;;;;3.37;1.00;;;;;;;-141.84;70.83;18486.94;5071536;28;20200;-62
2023/12/22 09:19:08;;;;;;;3.73;0.90;;;;;;;-141.84;73.47;18537.72;5069725;28;20212;-65
2023/12/22 09:21:37;;;;;;;3.20;0.90;;;;;;;-141.84;75.00;18551.94;5069126;28;20220;-65
2023/12/22 09:24:06;;;;;;;3.17;0.70;;;;;;;-141.84;75.85;18564.13;5067918;28;20628;-65
2023/12/22 09:26:34;;;;;;;1.87;0.90;;;;;;;-141.84;76.07;18560.06;5068750;28;20274;-65
2023/12/22 09:29:03;;;;;;;3.10;0.67;;;;;;;-141.84;77.23;18582.44;5069198;28;20687;-64
2023/12/22 09:31:32;;;;;;;2.80;1.13;;;;;;;-141.84;76.17;18580.41;5069303;28;20212;-66
2023/12/22 09:34:03;;;;;;;3.63;0.90;;;;;;;-141.84;74.94;18547.88;5069427;28;20227;-64
2023/12/22 09:36:32;;;;;;;3.33;0.80;;;;;;;-141.84;73.85;18531.63;5068846;28;20592;-64
2023/12/22 09:39:01;;;;;;;5.37;1.50;;;;;;;-141.84;82.23;18933.94;5068059;28;20223;-67
2023/12/22 09:41:29;;;;;;;2.57;0.70;;;;;;;-141.84;91.56;35221.03;5068882;28;20933;-66
2023/12/22 09:43:58;;;;;;;3.70;0.87;;;;;;;-141.84;97.44;68863.09;5069252;28;20239;-66
2023/12/22 09:46:28;;;;;;;1.80;0.80;;;;;;;-141.84;99.04;75717.34;5069422;28;20195;-63
2023/12/22 09:48:56;;;;;;;2.30;1.03;;;;;;;-141.84;100.00;83112.00;5068837;28;20222;-66
2023/12/22 09:51:28;;;;;;;3.03;0.90;;;;;;;-141.84;100.00;89990.66;5068834;28;20232;-66
2023/12/22 09:53:59;;;;;;;3.17;1.00;;;;;;;-141.84;100.00;94229.53;5068956;28;20303;-63
2023/12/22 09:56:31;;;;;;;2.30;0.80;;;;;;;-141.84;100.00;97146.31;5072478;28;20221;-61
2023/12/22 09:59:01;;;;;;;2.40;0.67;;;;;;;-141.84;100.00;100596.16;5072573;28;20257;-62
2023/12/22 10:01:31;;;;;;;1.73;0.67;;;;;;;-141.84;100.00;99799.78;5068533;28;20253;-61
2023/12/22 10:03:59;;;;;;;1.30;0.60;;;;;;;-141.84;100.00;98738.19;5061796;28;20238;-64
2023/12/22 10:06:30;;;;;;;1.13;0.77;;;;;;;-141.84;100.00;96085.44;5067144;28;20223;-64
2023/12/22 10:08:58;;;;;;;0.70;0.47;;;;;;;-141.84;100.00;93169.38;5056803;28;20265;-64
2023/12/22 10:11:29;;;;;;;1.53;0.40;;;;;;;-141.84;100.00;93964.47;5065892;28;20239;-63
2023/12/22 10:14:00;;;;;;;0.97;0.50;;;;;;;-141.84;100.00;98207.50;5073206;28;20228;-65
2023/12/22 10:16:29;;;;;;;0.73;0.60;;;;;;;-141.84;100.00;100861.66;5067214;28;20207;-64
2023/12/22 10:18:57;;;;;;;1.87;0.60;;;;;;;-141.84;100.00;100065.22;5072067;28;20694;-66
2023/12/22 10:21:26;;;;;;;2.10;0.70;;;;;;;-141.84;100.00;99534.38;5071632;28;20225;-65
2023/12/22 10:23:56;;;;;;;2.67;1.00;;;;;;;-141.84;100.00;96881.06;5071546;28;20769;-66
2023/12/22 10:26:25;;;;;;;2.13;0.60;;;;;;;-141.84;100.00;95820.25;5069446;28;20561;-65
2023/12/22 10:28:53;;;;;;;2.20;0.50;;;;;;;-141.84;100.00;93699.44;5070534;28;20221;-64
2023/12/22 10:31:22;;;;;;;2.80;0.70;;;;;;;-141.84;100.00;89725.88;5071888;28;20201;-63
2023/12/22 10:33:50;;;;;;;4.37;1.10;;;;;;;-141.84;100.00;94229.53;5071429;28;20683;-64
2023/12/22 10:36:19;;;;;;;2.67;1.10;;;;;;;-141.84;100.00;94759.69;5071493;28;20402;-63
2023/12/22 10:38:48;;;;;;;3.00;1.10;;;;;;;-141.84;100.00;93964.47;5071123;28;20227;-62
2023/12/22 10:41:18;;;;;;;4.70;1.33;;;;;;;-141.84;99.76;82847.66;5071327;28;20735;-63
2023/12/22 10:43:46;;;;;;;3.40;1.10;;;;;;;-141.84;97.41;73870.81;5070834;28;20628;-64
2023/12/22 10:46:15;;;;;;;8.60;1.30;;;;;;;-141.84;96.20;71234.38;5071611;28;20208;-64
2023/12/22 10:48:46;;;;;;;4.13;1.17;;;;;;;-141.84;95.15;64914.06;5070705;28;20259;-63
2023/12/22 10:51:15;;;;;;;3.10;0.93;;;;;;;-141.84;94.26;62020.59;5071482;28;20285;-67
2023/12/22 10:53:43;;;;;;;5.30;1.50;;;;;;;-141.84;89.25;35294.47;5071557;28;20253;-67
2023/12/22 10:56:12;;;;;;;8.67;1.97;;;;;;;-141.84;88.54;32663.22;5071285;28;20263;-67
2023/12/22 10:58:45;;;;;;;5.47;2.03;;;;;;;-141.84;86.58;23463.63;5071072;28;20270;-63
2023/12/22 11:01:16;;;;;;;5.33;1.60;;;;;;;-141.84;83.52;20004.88;5071042;28;20216;-63
2023/12/22 11:03:49;;;;;;;7.80;1.80;;;;;;;-141.84;79.93;18879.06;5069320;28;20232;-63
2023/12/22 11:06:18;;;;;;;4.53;1.93;;;;;;;-141.84;78.00;18639.31;5067408;28;20229;-62
2023/12/22 11:08:52;;;;;;;5.37;1.40;;;;;;;-141.84;76.15;18590.56;5068533;28;20220;-63
2023/12/22 11:11:29;;;;;;;5.23;1.30;;;;;;;-141.84;75.05;18543.81;5071046;28;20248;-63
2023/12/22 11:14:00;;;;;;;4.63;1.70;;;;;;;-141.84;72.99;18517.41;5069677;28;20231;-62
2023/12/22 11:16:30;;;;;;;3.83;1.63;;;;;;;-141.84;72.68;18515.38;5070595;28;20656;-62
2023/12/22 11:19:00;;;;;;;5.67;1.33;;;;;;;-141.84;71.74;18535.69;5064413;28;20675;-62
2023/12/22 11:21:29;;;;;;;7.17;1.87;;;;;;;-141.84;70.22;18523.50;5066505;28;20224;-62
2023/12/22 11:23:58;;;;;;;7.20;2.10;;;;;;;-141.84;69.94;18507.25;5061980;28;20274;-62
2023/12/22 11:26:27;;;;;;;8.47;2.03;;;;;;;-141.84;68.03;18541.78;5070663;28;20261;-63
2023/12/22 11:28:58;;;;;;;5.27;1.53;;;;;;;-141.84;67.00;18517.41;5069331;28;20301;-63